Time;durP1;ratioP1;P1;durP2;ratioP2;P2;SDS_P1;SDS_P2;PMS_P1;PMS_P2;Temp;Humidity;BMP_temperature;BMP_pressure;BME280_temperature;BME280_humidity;BME280_pressure;Samples;Min_cycle;Max_cycle;Signal;HPM_P1;HPM_P2
2023/01/29 00:00:20;;;;;;;24.73;9.40;;;;;;;;;;6341687;22;20215;-90
2023/01/29 00:03:26;;;;;;;20.43;8.77;;;;;;;;;;6342144;22;20164;-90
2023/01/29 00:06:33;;;;;;;20.37;7.93;;;;;;;;;;6343410;22;20211;-93
2023/01/29 00:09:39;;;;;;;20.40;9.23;;;;;;;;;;6361999;22;20188;-90
2023/01/29 00:12:46;;;;;;;21.03;8.70;;;;;;;;;;6341788;22;20207;-92
2023/01/29 00:15:55;;;;;;;21.57;8.63;;;;;;;;;;6341423;22;20172;-91
2023/01/29 00:19:01;;;;;;;22.83;8.73;;;;;;;;;;6342054;22;20247;-88
2023/01/29 00:22:08;;;;;;;25.00;9.17;;;;;;;;;;6342430;22;20212;-90
2023/01/29 00:25:14;;;;;;;18.63;8.07;;;;;;;;;;6341915;22;20542;-90
2023/01/29 00:28:29;;;;;;;24.30;8.43;;;;;;;;;;6341937;22;20168;-93
2023/01/29 00:46:44;;;;;;;18.33;7.13;;;;;;;;;;6340654;22;20214;-90
2023/01/29 00:49:51;;;;;;;13.97;6.30;;;;;;;;;;6342326;22;20218;-90
2023/01/29 01:28:11;;;;;;;14.23;5.90;;;;;;;;;;6324379;22;20201;-91
2023/01/29 01:31:17;;;;;;;16.80;7.00;;;;;;;;;;6340004;22;20156;-93
2023/01/29 01:34:23;;;;;;;14.10;6.87;;;;;;;;;;6340151;22;20171;-91
2023/01/29 01:37:28;;;;;;;13.63;6.70;;;;;;;;;;6337936;22;20209;-89
2023/01/29 01:40:33;;;;;;;16.90;7.00;;;;;;;;;;6337228;22;20214;-91
2023/01/29 01:43:54;;;;;;;14.03;6.87;;;;;;;;;;6338005;22;20161;-89
2023/01/29 01:47:01;;;;;;;19.33;7.80;;;;;;;;;;6341582;22;20164;-93
2023/01/29 01:50:08;;;;;;;16.80;7.67;;;;;;;;;;6341691;22;20172;-89
2023/01/29 01:53:16;;;;;;;20.17;9.50;;;;;;;;;;6338965;22;20168;-89
2023/01/29 01:56:24;;;;;;;26.40;10.90;;;;;;;;;;6338379;22;20179;-91
2023/01/29 01:59:31;;;;;;;22.27;10.10;;;;;;;;;;6339159;22;20208;-90
2023/01/29 02:09:34;;;;;;;21.27;9.53;;;;;;;;;;6337558;22;20165;-91
2023/01/29 02:12:40;;;;;;;23.40;9.23;;;;;;;;;;6338696;22;20165;-92
2023/01/29 02:15:47;;;;;;;19.70;9.27;;;;;;;;;;6337747;22;20155;-91
2023/01/29 02:18:54;;;;;;;22.60;9.70;;;;;;;;;;6338070;22;20172;-90
2023/01/29 02:22:10;;;;;;;18.60;9.23;;;;;;;;;;6337357;22;20291;-90
2023/01/29 02:25:36;;;;;;;20.17;8.93;;;;;;;;;;6336414;22;20195;-91
2023/01/29 02:28:49;;;;;;;21.60;9.40;;;;;;;;;;6323882;22;20185;-93
2023/01/29 02:32:10;;;;;;;20.37;9.63;;;;;;;;;;6324697;22;20170;-89
2023/01/29 02:35:28;;;;;;;19.07;8.83;;;;;;;;;;6324763;22;20601;-89
2023/01/29 02:38:40;;;;;;;21.00;9.40;;;;;;;;;;6323747;22;20192;-89
2023/01/29 02:41:51;;;;;;;19.53;9.33;;;;;;;;;;6324842;22;20233;-91
2023/01/29 02:45:01;;;;;;;20.00;8.70;;;;;;;;;;6326538;22;20209;-90
2023/01/29 02:48:07;;;;;;;21.33;9.33;;;;;;;;;;6325236;22;20175;-91
2023/01/29 02:51:19;;;;;;;18.77;9.40;;;;;;;;;;6326113;22;20157;-92
2023/01/29 02:54:28;;;;;;;16.20;7.83;;;;;;;;;;6324214;22;20195;-88
2023/01/29 02:57:35;;;;;;;18.20;9.00;;;;;;;;;;6323255;22;20162;-91
2023/01/29 03:00:44;;;;;;;17.97;8.90;;;;;;;;;;6323130;22;20169;-88
2023/01/29 03:03:52;;;;;;;22.30;9.27;;;;;;;;;;6324462;22;20177;-88
2023/01/29 03:07:00;;;;;;;20.87;9.07;;;;;;;;;;6322847;22;20189;-91
2023/01/29 03:10:07;;;;;;;20.30;9.40;;;;;;;;;;6325133;22;20193;-89
2023/01/29 03:13:15;;;;;;;17.17;8.70;;;;;;;;;;6323857;22;20169;-91
2023/01/29 03:16:26;;;;;;;18.23;8.77;;;;;;;;;;6323492;22;20164;-90
2023/01/29 03:19:35;;;;;;;17.30;8.90;;;;;;;;;;6324144;22;20199;-91
2023/01/29 03:22:45;;;;;;;15.90;8.23;;;;;;;;;;6323740;22;20173;-91
2023/01/29 03:32:44;;;;;;;17.73;8.77;;;;;;;;;;6324151;22;20173;-92
2023/01/29 03:35:51;;;;;;;20.00;9.70;;;;;;;;;;6323521;22;20234;-91
2023/01/29 03:38:58;;;;;;;18.03;8.63;;;;;;;;;;6324492;22;20201;-92
2023/01/29 03:42:05;;;;;;;17.80;8.80;;;;;;;;;;6326134;22;20157;-93
2023/01/29 03:45:15;;;;;;;17.70;8.83;;;;;;;;;;6326156;22;20165;-93
2023/01/29 03:48:29;;;;;;;19.57;9.50;;;;;;;;;;6325705;22;20162;-91
2023/01/29 03:51:38;;;;;;;16.87;9.17;;;;;;;;;;6325748;22;20148;-91
2023/01/29 03:54:51;;;;;;;17.23;8.40;;;;;;;;;;6324091;22;20161;-89
2023/01/29 03:57:59;;;;;;;21.87;9.20;;;;;;;;;;6324724;22;20211;-91
2023/01/29 04:01:07;;;;;;;19.77;9.43;;;;;;;;;;6323568;22;20164;-90
2023/01/29 04:04:15;;;;;;;16.07;8.70;;;;;;;;;;6323243;22;20169;-90
2023/01/29 04:07:26;;;;;;;17.40;8.73;;;;;;;;;;6323747;22;20164;-93
2023/01/29 04:10:41;;;;;;;16.93;8.03;;;;;;;;;;6323769;22;20172;-92
2023/01/29 04:13:46;;;;;;;18.57;8.30;;;;;;;;;;6324030;22;20169;-93
2023/01/29 04:16:58;;;;;;;17.47;8.37;;;;;;;;;;6306564;22;20153;-92
2023/01/29 04:20:19;;;;;;;13.03;7.23;;;;;;;;;;6324271;22;20180;-92
2023/01/29 04:23:25;;;;;;;15.10;7.13;;;;;;;;;;6323470;22;20164;-91
2023/01/29 04:26:42;;;;;;;14.30;7.03;;;;;;;;;;6323591;22;20204;-88
2023/01/29 04:29:53;;;;;;;20.13;8.70;;;;;;;;;;6324570;22;20643;-91
2023/01/29 04:33:04;;;;;;;12.90;7.23;;;;;;;;;;6324213;22;20160;-89
2023/01/29 04:36:18;;;;;;;15.67;7.80;;;;;;;;;;6322490;22;20209;-91
2023/01/29 04:39:26;;;;;;;15.93;7.40;;;;;;;;;;6322699;22;20212;-92
2023/01/29 04:42:32;;;;;;;17.20;7.43;;;;;;;;;;6322913;22;20165;-92
2023/01/29 04:45:45;;;;;;;15.27;7.57;;;;;;;;;;6323879;22;20169;-91
2023/01/29 04:48:58;;;;;;;19.03;8.27;;;;;;;;;;6325204;22;20152;-92
2023/01/29 04:52:10;;;;;;;17.40;8.30;;;;;;;;;;6324477;22;20165;-92
2023/01/29 04:55:18;;;;;;;18.67;8.30;;;;;;;;;;6325615;22;20170;-92
2023/01/29 04:58:27;;;;;;;20.27;9.03;;;;;;;;;;6324551;22;20165;-90
2023/01/29 05:01:34;;;;;;;15.97;7.30;;;;;;;;;;6324674;22;20208;-91
2023/01/29 05:04:40;;;;;;;15.30;7.10;;;;;;;;;;6325574;22;20229;-91
2023/01/29 05:07:48;;;;;;;15.67;7.70;;;;;;;;;;6325036;22;20153;-91
2023/01/29 05:10:58;;;;;;;14.77;6.87;;;;;;;;;;6324215;22;20215;-91
2023/01/29 05:14:05;;;;;;;15.83;7.50;;;;;;;;;;6310653;22;20160;-89
2023/01/29 05:17:14;;;;;;;13.77;7.10;;;;;;;;;;6324994;22;20546;-89
2023/01/29 05:20:20;;;;;;;16.30;7.07;;;;;;;;;;6324217;22;20218;-89
2023/01/29 05:23:26;;;;;;;17.70;7.87;;;;;;;;;;6324701;22;20153;-91
2023/01/29 05:29:56;;;;;;;16.30;7.57;;;;;;;;;;6322464;22;20165;-89
2023/01/29 05:33:01;;;;;;;16.27;6.57;;;;;;;;;;6324505;22;20146;-91
2023/01/29 05:36:06;;;;;;;16.77;7.17;;;;;;;;;;6323207;22;20235;-88
2023/01/29 05:39:13;;;;;;;13.43;6.80;;;;;;;;;;6323385;22;20193;-91
2023/01/29 05:42:18;;;;;;;13.57;6.40;;;;;;;;;;6323516;22;20211;-92
2023/01/29 05:45:23;;;;;;;15.33;5.90;;;;;;;;;;6323913;22;20157;-91
2023/01/29 05:48:30;;;;;;;12.17;5.60;;;;;;;;;;6323165;22;20238;-94
2023/01/29 05:51:36;;;;;;;12.77;6.37;;;;;;;;;;6322321;22;20663;-89
2023/01/29 05:54:42;;;;;;;15.03;6.57;;;;;;;;;;6323269;22;20160;-93
2023/01/29 05:57:47;;;;;;;9.93;4.70;;;;;;;;;;6321802;22;20157;-88
2023/01/29 06:00:52;;;;;;;7.50;4.27;;;;;;;;;;6322899;22;20205;-92
2023/01/29 06:03:58;;;;;;;7.50;3.50;;;;;;;;;;6321843;22;20284;-90
2023/01/29 06:07:04;;;;;;;6.47;3.70;;;;;;;;;;6323191;22;20157;-92
2023/01/29 06:10:13;;;;;;;11.30;3.80;;;;;;;;;;6324955;22;20213;-91
2023/01/29 06:13:18;;;;;;;6.67;3.60;;;;;;;;;;6324293;22;20231;-88
2023/01/29 06:16:24;;;;;;;6.23;2.83;;;;;;;;;;6324903;22;20161;-88
2023/01/29 06:19:29;;;;;;;6.50;3.33;;;;;;;;;;6324013;22;20276;-91
2023/01/29 06:22:34;;;;;;;12.70;3.63;;;;;;;;;;6325582;22;20169;-90
2023/01/29 06:25:41;;;;;;;6.37;3.30;;;;;;;;;;6324730;22;20215;-90
2023/01/29 06:28:49;;;;;;;9.73;3.60;;;;;;;;;;6326457;22;20221;-92
2023/01/29 06:31:55;;;;;;;8.70;3.70;;;;;;;;;;6325660;22;20176;-86
2023/01/29 06:35:01;;;;;;;7.37;3.80;;;;;;;;;;6325012;22;20211;-91
2023/01/29 06:38:08;;;;;;;5.97;2.93;;;;;;;;;;6326274;22;20145;-90
2023/01/29 06:41:17;;;;;;;7.53;3.23;;;;;;;;;;6325976;22;20193;-87
2023/01/29 06:44:22;;;;;;;6.60;3.07;;;;;;;;;;6324539;22;20160;-89
2023/01/29 06:47:27;;;;;;;11.03;3.40;;;;;;;;;;6322567;22;20210;-88
2023/01/29 06:50:32;;;;;;;11.83;3.50;;;;;;;;;;6323641;22;20152;-91
2023/01/29 06:53:39;;;;;;;8.27;3.40;;;;;;;;;;6324507;22;20158;-93
2023/01/29 06:56:46;;;;;;;9.97;3.30;;;;;;;;;;6323434;22;20168;-89
2023/01/29 06:59:51;;;;;;;7.07;3.33;;;;;;;;;;6324186;22;20193;-92
2023/01/29 07:02:57;;;;;;;5.17;3.03;;;;;;;;;;6325485;22;20269;-90
2023/01/29 07:06:03;;;;;;;6.00;3.03;;;;;;;;;;6325069;22;20162;-92
2023/01/29 07:09:08;;;;;;;6.57;3.10;;;;;;;;;;6325841;22;20165;-92
2023/01/29 07:12:15;;;;;;;11.00;3.33;;;;;;;;;;6325319;22;20165;-88
2023/01/29 07:15:20;;;;;;;6.47;3.33;;;;;;;;;;6325230;22;20256;-91
2023/01/29 07:18:25;;;;;;;5.10;2.73;;;;;;;;;;6327794;22;20288;-87
2023/01/29 07:24:50;;;;;;;6.87;3.50;;;;;;;;;;6328769;22;20183;-93
2023/01/29 07:27:57;;;;;;;7.63;2.83;;;;;;;;;;6333105;22;20261;-89
2023/01/29 07:31:02;;;;;;;6.00;2.90;;;;;;;;;;6339101;22;20207;-89
2023/01/29 07:34:08;;;;;;;9.03;3.83;;;;;;;;;;6339569;22;20164;-87
2023/01/29 07:37:13;;;;;;;6.60;3.27;;;;;;;;;;6339717;22;20165;-90
2023/01/29 07:40:19;;;;;;;9.53;3.40;;;;;;;;;;6339167;22;20234;-89
2023/01/29 07:43:25;;;;;;;8.87;4.00;;;;;;;;;;6337913;22;20161;-89
2023/01/29 07:46:30;;;;;;;7.63;3.60;;;;;;;;;;6338210;22;20152;-90
2023/01/29 07:49:35;;;;;;;6.77;2.90;;;;;;;;;;6339754;22;20215;-88
2023/01/29 07:52:41;;;;;;;7.30;3.27;;;;;;;;;;6338824;22;20168;-86
2023/01/29 07:55:46;;;;;;;6.80;2.83;;;;;;;;;;6337838;22;20229;-88
2023/01/29 07:58:53;;;;;;;5.43;3.07;;;;;;;;;;6337380;22;20215;-88
2023/01/29 08:01:58;;;;;;;9.03;3.23;;;;;;;;;;6340007;22;20207;-90
2023/01/29 08:05:04;;;;;;;8.70;3.20;;;;;;;;;;6341181;22;20164;-90
2023/01/29 08:08:09;;;;;;;7.67;3.20;;;;;;;;;;6339229;22;20191;-91
2023/01/29 08:11:15;;;;;;;7.50;3.30;;;;;;;;;;6340155;22;20148;-92
2023/01/29 08:14:22;;;;;;;5.63;3.00;;;;;;;;;;6339289;22;20275;-93
2023/01/29 08:17:28;;;;;;;4.27;2.73;;;;;;;;;;6340723;22;20202;-90
2023/01/29 08:20:33;;;;;;;6.37;3.23;;;;;;;;;;6341193;22;20234;-92
2023/01/29 08:23:38;;;;;;;3.90;2.73;;;;;;;;;;6341130;22;20222;-90
2023/01/29 08:26:44;;;;;;;6.97;2.70;;;;;;;;;;6338347;22;20164;-89
2023/01/29 08:29:51;;;;;;;14.27;2.63;;;;;;;;;;6338728;22;20222;-89
2023/01/29 08:32:56;;;;;;;8.73;2.80;;;;;;;;;;6339498;22;20274;-91
2023/01/29 08:36:01;;;;;;;6.50;3.10;;;;;;;;;;6337720;22;20209;-89
2023/01/29 08:39:07;;;;;;;10.23;3.13;;;;;;;;;;6339265;22;20244;-88
2023/01/29 08:42:13;;;;;;;6.10;3.10;;;;;;;;;;6339605;22;20204;-90
2023/01/29 08:45:20;;;;;;;9.53;3.33;;;;;;;;;;6339672;22;20183;-90
2023/01/29 08:48:29;;;;;;;6.40;3.07;;;;;;;;;;6339403;22;20156;-90
2023/01/29 08:51:34;;;;;;;9.23;2.87;;;;;;;;;;6339073;22;20194;-89
2023/01/29 08:54:43;;;;;;;3.90;2.43;;;;;;;;;;6340838;22;20187;-92
2023/01/29 08:57:49;;;;;;;9.83;3.17;;;;;;;;;;6339226;22;20310;-92
2023/01/29 09:00:56;;;;;;;8.23;3.30;;;;;;;;;;6339299;22;20191;-92
2023/01/29 09:04:06;;;;;;;5.10;3.07;;;;;;;;;;6339677;22;20149;-91
2023/01/29 09:07:11;;;;;;;8.27;3.40;;;;;;;;;;6339925;22;20207;-92
2023/01/29 09:10:17;;;;;;;6.53;2.90;;;;;;;;;;6340772;22;20163;-89
2023/01/29 09:13:23;;;;;;;8.57;3.00;;;;;;;;;;6341535;22;20216;-91
2023/01/29 09:16:32;;;;;;;7.27;2.73;;;;;;;;;;6339077;22;20176;-91
2023/01/29 09:19:38;;;;;;;5.93;2.90;;;;;;;;;;6339747;22;20147;-93
2023/01/29 09:22:44;;;;;;;9.47;3.43;;;;;;;;;;6339011;22;20154;-89
2023/01/29 09:25:50;;;;;;;7.37;2.60;;;;;;;;;;6339128;22;20160;-90
2023/01/29 09:28:56;;;;;;;5.00;2.83;;;;;;;;;;6338511;22;20258;-89
2023/01/29 09:32:04;;;;;;;9.97;3.00;;;;;;;;;;6339889;22;20172;-90
2023/01/29 09:35:10;;;;;;;8.00;3.47;;;;;;;;;;6337768;22;20164;-88
2023/01/29 09:38:17;;;;;;;13.93;3.27;;;;;;;;;;6342732;22;20149;-88
2023/01/29 09:41:34;;;;;;;5.40;2.90;;;;;;;;;;6339148;22;20192;-91
2023/01/29 09:44:47;;;;;;;7.43;3.27;;;;;;;;;;6339056;22;20196;-92
2023/01/29 09:47:54;;;;;;;7.57;3.30;;;;;;;;;;6338764;22;20233;-90
2023/01/29 09:51:01;;;;;;;5.87;3.10;;;;;;;;;;6339472;22;20152;-91
2023/01/29 09:54:15;;;;;;;11.83;3.97;;;;;;;;;;6340851;22;20207;-91
2023/01/29 09:57:25;;;;;;;7.13;3.37;;;;;;;;;;6341396;22;20169;-90
2023/01/29 10:14:52;;;;;;;7.67;3.10;;;;;;;;;;6314994;22;20192;-92
2023/01/29 10:18:04;;;;;;;22.57;4.80;;;;;;;;;;6338263;22;20171;-92
2023/01/29 10:21:17;;;;;;;9.03;4.50;;;;;;;;;;6338016;22;20743;-91
2023/01/29 10:24:27;;;;;;;9.43;3.77;;;;;;;;;;6336762;22;20189;-90
2023/01/29 10:27:37;;;;;;;14.00;4.23;;;;;;;;;;6336413;22;20173;-92
2023/01/29 10:30:48;;;;;;;17.57;4.20;;;;;;;;;;6338438;22;20169;-88
2023/01/29 10:33:55;;;;;;;6.00;3.73;;;;;;;;;;6338633;22;20210;-90
2023/01/29 10:37:02;;;;;;;12.90;5.10;;;;;;;;;;6338920;22;20159;-89
2023/01/29 10:40:21;;;;;;;10.10;4.03;;;;;;;;;;6336649;22;20180;-89
2023/01/29 10:43:30;;;;;;;5.03;2.83;;;;;;;;;;6337895;22;20149;-89
2023/01/29 10:46:46;;;;;;;7.17;3.37;;;;;;;;;;6339302;22;20172;-89
2023/01/29 10:50:12;;;;;;;6.87;3.70;;;;;;;;;;6339519;22;20168;-90
2023/01/29 10:53:25;;;;;;;8.23;3.97;;;;;;;;;;6339469;22;20536;-88
2023/01/29 10:56:38;;;;;;;6.50;3.20;;;;;;;;;;6338470;22;20207;-89
2023/01/29 10:59:49;;;;;;;6.67;3.90;;;;;;;;;;6340620;22;20169;-89
2023/01/29 11:02:57;;;;;;;6.57;3.23;;;;;;;;;;6339279;22;20191;-89
2023/01/29 11:06:11;;;;;;;10.80;4.37;;;;;;;;;;6341435;22;20233;-88
2023/01/29 11:09:19;;;;;;;6.90;4.00;;;;;;;;;;6341739;22;20148;-89
2023/01/29 11:12:29;;;;;;;8.20;4.20;;;;;;;;;;6340449;22;20188;-89
2023/01/29 11:15:39;;;;;;;8.70;5.23;;;;;;;;;;6327268;22;20189;-90
2023/01/29 11:18:57;;;;;;;6.27;3.97;;;;;;;;;;6327933;22;20184;-89
2023/01/29 11:22:03;;;;;;;9.83;4.00;;;;;;;;;;6328634;22;20197;-89
2023/01/29 11:25:10;;;;;;;10.87;4.20;;;;;;;;;;6327409;22;20172;-88
2023/01/29 11:28:35;;;;;;;8.97;4.67;;;;;;;;;;6327762;22;20161;-91
2023/01/29 11:31:41;;;;;;;6.10;3.80;;;;;;;;;;6328614;22;20204;-89
2023/01/29 11:35:02;;;;;;;10.43;4.43;;;;;;;;;;6327929;22;20165;-90
2023/01/29 11:38:17;;;;;;;11.43;5.37;;;;;;;;;;6327268;22;20170;-90
2023/01/29 11:41:24;;;;;;;7.57;4.50;;;;;;;;;;6328882;22;20189;-90
2023/01/29 11:44:31;;;;;;;11.43;4.83;;;;;;;;;;6326863;22;20204;-90
2023/01/29 11:47:37;;;;;;;8.67;4.40;;;;;;;;;;6327652;22;20169;-90
2023/01/29 11:50:43;;;;;;;8.83;4.90;;;;;;;;;;6326689;22;20208;-89
2023/01/29 11:53:53;;;;;;;9.13;4.47;;;;;;;;;;6326909;22;20237;-90
2023/01/29 11:56:59;;;;;;;8.43;4.90;;;;;;;;;;6326630;22;20202;-89
2023/01/29 12:00:06;;;;;;;11.43;5.00;;;;;;;;;;6324251;22;20170;-92
2023/01/29 12:03:16;;;;;;;7.57;4.47;;;;;;;;;;6329575;22;20213;-92
2023/01/29 12:06:23;;;;;;;10.10;5.03;;;;;;;;;;6326736;22;20181;-91
2023/01/29 12:09:32;;;;;;;14.90;5.40;;;;;;;;;;6327870;22;20200;-92
2023/01/29 12:12:40;;;;;;;16.90;6.67;;;;;;;;;;6326969;22;20262;-88
2023/01/29 12:15:46;;;;;;;9.07;4.70;;;;;;;;;;6326943;22;20173;-89
2023/01/29 12:18:58;;;;;;;10.87;5.50;;;;;;;;;;6326913;22;20201;-89
2023/01/29 12:22:05;;;;;;;10.00;4.90;;;;;;;;;;6328017;22;20180;-89
2023/01/29 12:25:19;;;;;;;11.53;4.83;;;;;;;;;;6327251;22;20162;-89
2023/01/29 12:28:46;;;;;;;8.00;4.87;;;;;;;;;;6326136;22;20211;-90
2023/01/29 12:31:58;;;;;;;8.03;4.17;;;;;;;;;;6326566;22;20165;-91
2023/01/29 12:35:18;;;;;;;12.73;5.10;;;;;;;;;;6327599;22;20165;-90
2023/01/29 12:38:27;;;;;;;10.10;5.20;;;;;;;;;;6327610;22;20277;-91
2023/01/29 12:41:37;;;;;;;10.30;5.67;;;;;;;;;;6326448;22;20192;-89
2023/01/29 12:44:45;;;;;;;7.60;4.63;;;;;;;;;;6325904;22;20222;-89
2023/01/29 12:47:52;;;;;;;12.17;4.87;;;;;;;;;;6326874;22;20166;-90
2023/01/29 12:51:00;;;;;;;12.67;6.13;;;;;;;;;;6327416;22;20596;-89
2023/01/29 12:54:07;;;;;;;8.03;5.07;;;;;;;;;;6327056;22;20204;-91
2023/01/29 12:57:19;;;;;;;9.07;5.33;;;;;;;;;;6325243;22;20161;-88
2023/01/29 13:00:27;;;;;;;15.43;6.10;;;;;;;;;;6310619;22;20169;-87
2023/01/29 13:03:36;;;;;;;31.23;12.03;;;;;;;;;;6328371;22;20188;-89
2023/01/29 13:06:43;;;;;;;14.23;7.43;;;;;;;;;;6327835;22;20207;-90
2023/01/29 13:09:51;;;;;;;22.63;8.47;;;;;;;;;;6328445;22;20193;-90
2023/01/29 13:13:02;;;;;;;19.17;7.23;;;;;;;;;;6326427;22;20176;-89
2023/01/29 13:16:10;;;;;;;10.47;6.37;;;;;;;;;;6329121;22;20227;-90
2023/01/29 13:19:22;;;;;;;11.30;6.90;;;;;;;;;;6326153;22;20172;-90
2023/01/29 13:22:29;;;;;;;13.07;6.03;;;;;;;;;;6326042;22;20199;-90
2023/01/29 13:25:35;;;;;;;14.90;6.50;;;;;;;;;;6323776;22;20608;-91
2023/01/29 13:28:45;;;;;;;9.93;6.00;;;;;;;;;;6325312;22;20172;-90
2023/01/29 13:31:51;;;;;;;12.60;5.60;;;;;;;;;;6326725;22;20180;-89
2023/01/29 13:35:00;;;;;;;15.03;6.97;;;;;;;;;;6325249;22;20221;-90
2023/01/29 13:38:06;;;;;;;21.70;8.40;;;;;;;;;;6307524;22;20165;-90
2023/01/29 13:41:12;;;;;;;16.03;7.53;;;;;;;;;;6324290;22;20197;-92
2023/01/29 13:44:26;;;;;;;16.77;7.60;;;;;;;;;;6325150;22;20184;-89
2023/01/29 13:47:33;;;;;;;10.67;6.03;;;;;;;;;;6325538;22;20169;-90
2023/01/29 13:50:40;;;;;;;9.17;5.17;;;;;;;;;;6326023;22;20153;-89
2023/01/29 13:53:54;;;;;;;9.47;5.67;;;;;;;;;;6327909;22;20192;-90
2023/01/29 13:57:01;;;;;;;10.67;5.70;;;;;;;;;;6324189;22;20208;-88
2023/01/29 14:00:33;;;;;;;10.40;5.80;;;;;;;;;;6329560;22;20171;-88
2023/01/29 14:03:45;;;;;;;10.97;5.90;;;;;;;;;;6309018;22;20164;-91
2023/01/29 14:06:51;;;;;;;10.50;5.90;;;;;;;;;;6325877;22;20170;-91
2023/01/29 14:10:08;;;;;;;11.03;5.67;;;;;;;;;;6326791;22;20185;-90
2023/01/29 14:13:33;;;;;;;11.50;5.37;;;;;;;;;;6324139;22;20215;-91
2023/01/29 14:16:40;;;;;;;12.50;6.00;;;;;;;;;;6307804;22;20192;-90
2023/01/29 14:19:50;;;;;;;13.07;5.50;;;;;;;;;;6308212;22;20148;-89
2023/01/29 14:22:58;;;;;;;11.27;5.77;;;;;;;;;;6308132;22;20185;-88
2023/01/29 14:26:05;;;;;;;8.03;4.90;;;;;;;;;;6307616;22;20210;-90
2023/01/29 14:29:18;;;;;;;8.40;4.43;;;;;;;;;;6307776;22;20165;-90
2023/01/29 14:32:39;;;;;;;12.33;5.23;;;;;;;;;;6308491;22;20674;-89
2023/01/29 14:35:50;;;;;;;13.97;5.60;;;;;;;;;;6307945;22;20170;-90
2023/01/29 14:38:58;;;;;;;12.87;5.83;;;;;;;;;;6310485;22;20162;-89
2023/01/29 14:42:06;;;;;;;14.67;5.77;;;;;;;;;;6309211;22;20188;-90
2023/01/29 14:45:24;;;;;;;10.60;5.03;;;;;;;;;;6310247;22;20204;-92
2023/01/29 14:48:47;;;;;;;8.60;4.67;;;;;;;;;;6308492;22;20162;-91
2023/01/29 14:55:22;;;;;;;11.47;5.97;;;;;;;;;;6325462;22;20161;-89
2023/01/29 14:58:34;;;;;;;10.07;5.23;;;;;;;;;;6308398;22;20173;-90
2023/01/29 15:01:41;;;;;;;10.03;5.50;;;;;;;;;;6308920;22;20189;-89
2023/01/29 15:04:51;;;;;;;11.93;4.77;;;;;;;;;;6309500;22;20153;-88
2023/01/29 15:07:59;;;;;;;10.33;4.77;;;;;;;;;;6311196;22;20208;-90
2023/01/29 15:11:35;;;;;;;12.47;5.60;;;;;;;;;;6308500;22;20168;-89
2023/01/29 15:14:45;;;;;;;15.80;6.07;;;;;;;;;;6318408;22;20227;-90
2023/01/29 15:17:55;;;;;;;12.87;6.10;;;;;;;;;;6340983;22;20149;-89
2023/01/29 15:21:04;;;;;;;13.37;5.73;;;;;;;;;;6338863;22;20164;-92
2023/01/29 15:24:23;;;;;;;13.83;6.00;;;;;;;;;;6337553;22;20180;-90
2023/01/29 15:27:29;;;;;;;13.50;5.87;;;;;;;;;;6322856;22;20160;-89
2023/01/29 15:30:36;;;;;;;9.47;5.33;;;;;;;;;;6339155;22;20176;-89
2023/01/29 15:33:43;;;;;;;12.63;5.63;;;;;;;;;;6342139;22;20192;-91
2023/01/29 15:37:06;;;;;;;16.60;6.20;;;;;;;;;;6343859;22;20607;-90
2023/01/29 16:33:05;;;;;;;13.37;6.10;;;;;;;;;;6310803;22;20630;-90
2023/01/29 16:36:17;;;;;;;10.30;5.50;;;;;;;;;;6280230;22;20234;-89
2023/01/29 16:39:25;;;;;;;11.13;5.90;;;;;;;;;;6277645;22;20244;-90
2023/01/29 16:42:34;;;;;;;10.27;5.70;;;;;;;;;;6278639;22;20192;-89
2023/01/29 16:45:40;;;;;;;16.60;6.20;;;;;;;;;;6277274;22;20170;-88
2023/01/29 16:48:48;;;;;;;11.77;5.40;;;;;;;;;;6277472;22;20205;-89
2023/01/29 16:51:58;;;;;;;13.97;6.63;;;;;;;;;;6261562;22;20174;-90
2023/01/29 16:55:25;;;;;;;11.67;6.07;;;;;;;;;;6277172;22;20166;-89
2023/01/29 16:58:31;;;;;;;10.87;6.13;;;;;;;;;;6279430;22;20174;-88
2023/01/29 17:01:39;;;;;;;13.97;6.30;;;;;;;;;;6277987;22;20173;-91
2023/01/29 17:04:46;;;;;;;12.30;6.13;;;;;;;;;;6278974;22;20166;-88
2023/01/29 17:07:52;;;;;;;17.60;7.07;;;;;;;;;;6277770;22;20165;-90
2023/01/29 17:10:58;;;;;;;13.87;6.80;;;;;;;;;;6277352;22;20177;-89
2023/01/29 17:14:06;;;;;;;12.03;6.30;;;;;;;;;;6279119;22;20161;-89
2023/01/29 17:17:18;;;;;;;15.63;7.53;;;;;;;;;;6277481;22;20161;-89
2023/01/29 17:20:26;;;;;;;17.83;6.17;;;;;;;;;;6280646;22;20220;-90
2023/01/29 17:26:52;;;;;;;16.63;7.57;;;;;;;;;;6276434;22;20224;-88
2023/01/29 17:29:57;;;;;;;16.07;7.60;;;;;;;;;;6278050;22;20211;-90
2023/01/29 17:33:16;;;;;;;15.40;8.20;;;;;;;;;;6277526;22;20154;-88
2023/01/29 17:36:23;;;;;;;14.73;7.30;;;;;;;;;;6308204;22;20165;-89
2023/01/29 17:39:29;;;;;;;13.60;7.13;;;;;;;;;;6309183;22;20173;-90
2023/01/29 17:42:34;;;;;;;15.03;7.00;;;;;;;;;;6306490;22;20193;-89
2023/01/29 17:45:40;;;;;;;19.93;8.17;;;;;;;;;;6308248;22;20165;-89
2023/01/29 17:48:50;;;;;;;12.90;7.00;;;;;;;;;;6328078;22;20206;-90
2023/01/29 19:26:10;;;;;;;30.23;13.23;;;;;;;;;;6328565;22;20189;-89
2023/01/29 19:29:16;;;;;;;29.27;13.83;;;;;;;;;;6341574;22;20161;-90
2023/01/29 19:32:28;;;;;;;19.80;9.83;;;;;;;;;;6340734;22;20173;-88
2023/01/29 19:35:35;;;;;;;42.87;17.23;;;;;;;;;;6341625;22;20145;-89
2023/01/29 19:38:42;;;;;;;40.77;17.03;;;;;;;;;;6341496;22;20600;-90
2023/01/29 19:41:49;;;;;;;23.73;12.17;;;;;;;;;;6341367;22;20148;-91
2023/01/29 19:44:56;;;;;;;18.57;8.83;;;;;;;;;;6341796;22;20187;-90
2023/01/29 19:48:02;;;;;;;18.47;8.53;;;;;;;;;;6340861;22;20193;-91
2023/01/29 19:51:09;;;;;;;17.80;8.20;;;;;;;;;;6343546;22;20168;-90
2023/01/29 19:54:14;;;;;;;19.00;8.37;;;;;;;;;;6341504;22;20248;-88
2023/01/29 19:57:25;;;;;;;18.17;9.03;;;;;;;;;;6342188;22;20152;-88
2023/01/29 20:00:32;;;;;;;21.80;10.77;;;;;;;;;;6341799;22;20159;-89
2023/01/29 20:04:00;;;;;;;25.87;11.80;;;;;;;;;;6342325;22;20192;-87
2023/01/29 20:07:11;;;;;;;27.27;12.60;;;;;;;;;;6328723;22;20172;-87
2023/01/29 20:10:26;;;;;;;22.60;10.57;;;;;;;;;;6308899;22;20200;-90
2023/01/29 21:12:13;;;;;;;20.43;10.33;;;;;;;;;;6278018;22;20205;-91
2023/01/29 21:15:22;;;;;;;21.90;9.77;;;;;;;;;;6329684;22;20200;-88
2023/01/29 21:21:47;;;;;;;20.17;10.30;;;;;;;;;;6311483;22;20165;-91
2023/01/29 21:24:53;;;;;;;21.90;10.07;;;;;;;;;;6309078;22;20176;-92
2023/01/29 21:27:59;;;;;;;25.07;10.70;;;;;;;;;;6306656;22;20207;-90
2023/01/29 21:31:08;;;;;;;23.60;10.73;;;;;;;;;;6306005;22;20160;-91
2023/01/29 21:34:13;;;;;;;25.37;11.00;;;;;;;;;;6307273;22;20176;-93
2023/01/29 21:37:18;;;;;;;28.50;11.67;;;;;;;;;;6306073;22;20184;-91
2023/01/29 21:40:24;;;;;;;22.00;10.73;;;;;;;;;;6307414;22;20153;-90
2023/01/29 21:43:30;;;;;;;23.67;11.37;;;;;;;;;;6308016;22;20200;-91
2023/01/29 21:46:40;;;;;;;22.37;10.90;;;;;;;;;;6307525;22;20206;-91
2023/01/29 21:49:45;;;;;;;20.10;10.17;;;;;;;;;;6307847;22;20175;-91
2023/01/29 21:52:50;;;;;;;19.67;10.07;;;;;;;;;;6307568;22;20212;-92
2023/01/29 21:55:59;;;;;;;20.70;10.07;;;;;;;;;;6306339;22;20145;-92
2023/01/29 21:59:05;;;;;;;20.70;10.30;;;;;;;;;;6306951;22;20169;-90
2023/01/29 22:02:13;;;;;;;21.47;10.80;;;;;;;;;;6306952;22;20255;-90
2023/01/29 22:05:18;;;;;;;24.13;11.33;;;;;;;;;;6308226;22;20176;-91
2023/01/29 22:08:24;;;;;;;25.53;11.33;;;;;;;;;;6306737;22;20212;-92
2023/01/29 22:11:29;;;;;;;23.47;11.23;;;;;;;;;;6307664;22;20171;-92
2023/01/29 22:14:34;;;;;;;24.00;11.77;;;;;;;;;;6308308;22;20169;-90
2023/01/29 22:17:41;;;;;;;24.77;11.57;;;;;;;;;;6307873;22;20280;-90
2023/01/29 22:20:46;;;;;;;24.90;10.07;;;;;;;;;;6306292;22;20164;-88
2023/01/29 22:23:51;;;;;;;25.53;12.17;;;;;;;;;;6306332;22;20251;-89
2023/01/29 22:26:56;;;;;;;25.03;11.83;;;;;;;;;;6307400;22;20169;-89
2023/01/29 22:30:02;;;;;;;26.53;11.97;;;;;;;;;;6305807;22;20169;-89
2023/01/29 22:33:09;;;;;;;26.33;12.90;;;;;;;;;;6306873;22;20210;-90
2023/01/29 22:36:16;;;;;;;24.93;11.93;;;;;;;;;;6305013;22;20174;-89
2023/01/29 22:39:22;;;;;;;25.17;11.53;;;;;;;;;;6304575;22;20153;-91
2023/01/29 22:42:27;;;;;;;27.10;11.93;;;;;;;;;;6306183;22;20165;-89
2023/01/29 22:45:32;;;;;;;30.13;13.50;;;;;;;;;;6308946;22;20241;-90
2023/01/29 22:48:43;;;;;;;24.60;11.83;;;;;;;;;;6309240;22;20169;-90
2023/01/29 22:52:08;;;;;;;23.83;11.57;;;;;;;;;;6306758;22;20169;-90
2023/01/29 22:55:14;;;;;;;26.20;11.97;;;;;;;;;;6306669;22;20169;-90
2023/01/29 22:58:19;;;;;;;25.50;11.70;;;;;;;;;;6306552;22;20208;-90
2023/01/29 23:01:26;;;;;;;26.07;12.03;;;;;;;;;;6308276;22;20169;-91
2023/01/29 23:04:33;;;;;;;25.13;12.23;;;;;;;;;;6309416;22;20694;-91
2023/01/29 23:07:38;;;;;;;26.60;12.80;;;;;;;;;;6308404;22;20207;-91
2023/01/29 23:10:43;;;;;;;28.20;12.93;;;;;;;;;;6308752;22;20172;-90
2023/01/29 23:13:49;;;;;;;30.03;12.57;;;;;;;;;;6278394;22;20234;-88
2023/01/29 23:16:55;;;;;;;27.53;11.73;;;;;;;;;;6275889;22;20174;-90
2023/01/29 23:20:02;;;;;;;27.40;12.10;;;;;;;;;;6276861;22;20166;-89
2023/01/29 23:23:08;;;;;;;24.90;11.70;;;;;;;;;;6275777;22;20539;-91
2023/01/29 23:29:36;;;;;;;27.83;12.03;;;;;;;;;;6276030;22;20154;-91
2023/01/29 23:32:41;;;;;;;26.13;12.23;;;;;;;;;;6276095;22;20233;-91
2023/01/29 23:35:48;;;;;;;32.23;12.27;;;;;;;;;;6276348;22;20189;-90
2023/01/29 23:38:54;;;;;;;27.30;12.33;;;;;;;;;;6277334;22;20189;-88